sensor_id;sensor_type;location;lat;lon;timestamp;pressure;altitude;pressure_sealevel;temperature;humidity
22830;BME280;11581;51.250;6.778;2023-04-26T00:00:23;101419.34;;;7.09;56.55
22830;BME280;11581;51.250;6.778;2023-04-26T00:02:50;101461.53;;;7.37;56.81
22830;BME280;11581;51.250;6.778;2023-04-26T00:05:17;101494.09;;;7.51;57.15
22830;BME280;11581;51.250;6.778;2023-04-26T00:07:43;101454.88;;;7.19;57.08
22830;BME280;11581;51.250;6.778;2023-04-26T00:10:10;101464.72;;;7.29;57.33
22830;BME280;11581;51.250;6.778;2023-04-26T00:12:37;101468.44;;;7.27;57.37
22830;BME280;11581;51.250;6.778;2023-04-26T00:15:06;101460.72;;;7.24;57.38
22830;BME280;11581;51.250;6.778;2023-04-26T00:17:32;101493.75;;;7.43;57.49
22830;BME280;11581;51.250;6.778;2023-04-26T00:19:59;101485.91;;;7.42;57.62
22830;BME280;11581;51.250;6.778;2023-04-26T00:22:25;101442.78;;;7.15;57.36
22830;BME280;11581;51.250;6.778;2023-04-26T00:24:52;101483.47;;;7.39;57.67
22830;BME280;11581;51.250;6.778;2023-04-26T00:27:18;101484.44;;;7.38;57.77
22830;BME280;11581;51.250;6.778;2023-04-26T00:29:45;101433.78;;;7.05;57.85
22830;BME280;11581;51.250;6.778;2023-04-26T00:32:11;101505.81;;;7.24;57.93
22830;BME280;11581;51.250;6.778;2023-04-26T00:34:38;101471.09;;;7.27;58.29
22830;BME280;11581;51.250;6.778;2023-04-26T00:37:05;101476.91;;;7.32;58.08
22830;BME280;11581;51.250;6.778;2023-04-26T00:39:32;101442.03;;;7.13;58.24
22830;BME280;11581;51.250;6.778;2023-04-26T00:41:58;101243.94;;;5.92;58.15
22830;BME280;11581;51.250;6.778;2023-04-26T00:44:24;101465.81;;;7.27;58.55
22830;BME280;11581;51.250;6.778;2023-04-26T00:46:52;101468.44;;;7.27;58.59
22830;BME280;11581;51.250;6.778;2023-04-26T00:49:21;101464.34;;;6.98;58.38
22830;BME280;11581;51.250;6.778;2023-04-26T00:51:48;101469.59;;;7.23;58.67
22830;BME280;11581;51.250;6.778;2023-04-26T00:54:18;101468.88;;;7.21;58.85
22830;BME280;11581;51.250;6.778;2023-04-26T00:56:45;101476.84;;;7.21;58.49
22830;BME280;11581;51.250;6.778;2023-04-26T00:59:12;101396.03;;;6.76;58.67
22830;BME280;11581;51.250;6.778;2023-04-26T01:01:38;101471.75;;;7.18;58.97
22830;BME280;11581;51.250;6.778;2023-04-26T01:04:06;101473.66;;;7.16;58.81
22830;BME280;11581;51.250;6.778;2023-04-26T01:06:34;101412.72;;;6.78;58.84
22830;BME280;11581;51.250;6.778;2023-04-26T01:09:04;101473.88;;;7.13;59.00
22830;BME280;11581;51.250;6.778;2023-04-26T01:11:32;101428.84;;;6.88;59.10
22830;BME280;11581;51.250;6.778;2023-04-26T01:13:59;101474.94;;;7.10;59.04
22830;BME280;11581;51.250;6.778;2023-04-26T01:16:28;101472.50;;;7.07;59.42
22830;BME280;11581;51.250;6.778;2023-04-26T01:18:55;101480.56;;;7.06;59.22
22830;BME280;11581;51.250;6.778;2023-04-26T01:21:23;101483.31;;;7.04;59.56
22830;BME280;11581;51.250;6.778;2023-04-26T01:23:50;101476.44;;;7.02;59.61
22830;BME280;11581;51.250;6.778;2023-04-26T01:26:18;101474.75;;;7.01;59.54
22830;BME280;11581;51.250;6.778;2023-04-26T01:28:45;101473.66;;;6.90;59.61
22830;BME280;11581;51.250;6.778;2023-04-26T01:31:13;101481.31;;;6.95;59.31
22830;BME280;11581;51.250;6.778;2023-04-26T01:33:40;101434.88;;;6.64;59.83
22830;BME280;11581;51.250;6.778;2023-04-26T01:36:10;101486.22;;;6.88;60.09
22830;BME280;11581;51.250;6.778;2023-04-26T01:38:37;101485.56;;;6.85;59.94
22830;BME280;11581;51.250;6.778;2023-04-26T01:41:03;101433.81;;;6.54;60.09
22830;BME280;11581;51.250;6.778;2023-04-26T01:43:30;101358.84;;;6.02;60.16
22830;BME280;11581;51.250;6.778;2023-04-26T01:45:57;101476.53;;;6.75;60.78
22830;BME280;11581;51.250;6.778;2023-04-26T01:48:29;101462.34;;;6.63;60.75
22830;BME280;11581;51.250;6.778;2023-04-26T01:50:59;101462.44;;;6.62;60.85
22830;BME280;11581;51.250;6.778;2023-04-26T01:53:25;101378.66;;;6.09;61.05
22830;BME280;11581;51.250;6.778;2023-04-26T01:55:52;101422.34;;;6.29;61.33
22830;BME280;11581;51.250;6.778;2023-04-26T01:58:19;101238.31;;;5.20;61.00
22830;BME280;11581;51.250;6.778;2023-04-26T02:00:47;101407.94;;;6.20;61.30
22830;BME280;11581;51.250;6.778;2023-04-26T02:03:14;101477.16;;;6.53;61.20
22830;BME280;11581;51.250;6.778;2023-04-26T02:05:40;101378.53;;;5.86;61.60
22830;BME280;11581;51.250;6.778;2023-04-26T02:08:07;101471.66;;;6.44;61.39
22830;BME280;11581;51.250;6.778;2023-04-26T02:10:33;101461.56;;;6.36;61.90
22830;BME280;11581;51.250;6.778;2023-04-26T02:13:00;101483.84;;;6.46;62.05
22830;BME280;11581;51.250;6.778;2023-04-26T02:15:26;101489.16;;;6.46;61.67
22830;BME280;11581;51.250;6.778;2023-04-26T02:17:54;101404.94;;;6.00;61.83
22830;BME280;11581;51.250;6.778;2023-04-26T02:20:21;101478.75;;;6.43;62.01
22830;BME280;11581;51.250;6.778;2023-04-26T02:22:47;101482.38;;;6.42;61.92
22830;BME280;11581;51.250;6.778;2023-04-26T02:25:13;101440.13;;;6.14;62.15
22830;BME280;11581;51.250;6.778;2023-04-26T02:27:40;101443.75;;;6.13;62.39
22830;BME280;11581;51.250;6.778;2023-04-26T02:30:07;101500.25;;;6.26;62.22
22830;BME280;11581;51.250;6.778;2023-04-26T02:32:34;101438.00;;;6.07;62.06
22830;BME280;11581;51.250;6.778;2023-04-26T02:35:00;101476.19;;;6.29;62.17
22830;BME280;11581;51.250;6.778;2023-04-26T02:37:27;101466.31;;;6.19;62.61
22830;BME280;11581;51.250;6.778;2023-04-26T02:39:53;101468.66;;;6.23;62.74
22830;BME280;11581;51.250;6.778;2023-04-26T02:42:20;101473.19;;;6.21;62.94
22830;BME280;11581;51.250;6.778;2023-04-26T02:44:47;101469.78;;;6.19;63.04
22830;BME280;11581;51.250;6.778;2023-04-26T02:47:14;101444.00;;;5.96;63.07
22830;BME280;11581;51.250;6.778;2023-04-26T02:49:40;101465.84;;;6.12;63.19
22830;BME280;11581;51.250;6.778;2023-04-26T02:52:08;101477.41;;;6.11;63.27
22830;BME280;11581;51.250;6.778;2023-04-26T02:54:34;101470.44;;;6.10;63.22
22830;BME280;11581;51.250;6.778;2023-04-26T02:57:01;101478.47;;;6.09;63.20
22830;BME280;11581;51.250;6.778;2023-04-26T02:59:28;101401.38;;;5.60;63.58
22830;BME280;11581;51.250;6.778;2023-04-26T03:01:54;101475.25;;;6.04;63.56
22830;BME280;11581;51.250;6.778;2023-04-26T03:04:22;101470.06;;;6.02;63.61
22830;BME280;11581;51.250;6.778;2023-04-26T03:06:49;101444.06;;;5.82;63.67
22830;BME280;11581;51.250;6.778;2023-04-26T03:09:15;101391.19;;;5.54;63.58
22830;BME280;11581;51.250;6.778;2023-04-26T03:11:42;101422.91;;;5.68;63.41
22830;BME280;11581;51.250;6.778;2023-04-26T03:14:09;101460.84;;;5.95;63.48
22830;BME280;11581;51.250;6.778;2023-04-26T03:16:42;101472.50;;;5.93;64.18
22830;BME280;11581;51.250;6.778;2023-04-26T03:19:09;101445.91;;;5.80;63.76
22830;BME280;11581;51.250;6.778;2023-04-26T03:21:37;101462.19;;;5.88;63.89
22830;BME280;11581;51.250;6.778;2023-04-26T03:24:04;101465.03;;;5.85;64.02
22830;BME280;11581;51.250;6.778;2023-04-26T03:26:31;101404.53;;;5.53;64.10
22830;BME280;11581;51.250;6.778;2023-04-26T03:28:58;101447.66;;;5.81;64.04
22830;BME280;11581;51.250;6.778;2023-04-26T03:31:24;101401.16;;;5.51;64.43
22830;BME280;11581;51.250;6.778;2023-04-26T03:33:51;101449.72;;;5.76;64.42
22830;BME280;11581;51.250;6.778;2023-04-26T03:36:18;101423.91;;;5.53;64.36
22830;BME280;11581;51.250;6.778;2023-04-26T03:38:45;101450.97;;;5.71;64.55
22830;BME280;11581;51.250;6.778;2023-04-26T03:41:12;101442.88;;;5.60;64.71
22830;BME280;11581;51.250;6.778;2023-04-26T03:43:38;101458.06;;;5.70;64.80
22830;BME280;11581;51.250;6.778;2023-04-26T03:46:05;101451.16;;;5.68;64.93
22830;BME280;11581;51.250;6.778;2023-04-26T03:48:31;101404.28;;;5.43;64.66
22830;BME280;11581;51.250;6.778;2023-04-26T03:50:58;101419.88;;;5.48;64.79
22830;BME280;11581;51.250;6.778;2023-04-26T03:53:26;101418.66;;;5.39;64.89
22830;BME280;11581;51.250;6.778;2023-04-26T03:55:53;101450.72;;;5.61;64.79
22830;BME280;11581;51.250;6.778;2023-04-26T03:58:20;101385.44;;;5.21;64.79
22830;BME280;11581;51.250;6.778;2023-04-26T04:00:46;101437.31;;;5.50;65.00
22830;BME280;11581;51.250;6.778;2023-04-26T04:03:12;101452.81;;;5.56;65.16
22830;BME280;11581;51.250;6.778;2023-04-26T04:05:39;101450.28;;;5.55;65.15
22830;BME280;11581;51.250;6.778;2023-04-26T04:08:06;101393.78;;;5.15;65.19
22830;BME280;11581;51.250;6.778;2023-04-26T04:10:33;101412.66;;;5.23;65.14
22830;BME280;11581;51.250;6.778;2023-04-26T04:13:01;101426.31;;;5.30;65.30
22830;BME280;11581;51.250;6.778;2023-04-26T04:15:28;101444.78;;;5.44;65.25
22830;BME280;11581;51.250;6.778;2023-04-26T04:17:54;101444.78;;;5.44;65.37
22830;BME280;11581;51.250;6.778;2023-04-26T04:20:21;101440.66;;;5.40;65.20
22830;BME280;11581;51.250;6.778;2023-04-26T04:22:47;101434.94;;;5.33;65.17
22830;BME280;11581;51.250;6.778;2023-04-26T04:25:14;101363.72;;;4.90;65.19
22830;BME280;11581;51.250;6.778;2023-04-26T04:27:41;101465.69;;;5.48;65.37
22830;BME280;11581;51.250;6.778;2023-04-26T04:30:08;101351.94;;;4.81;65.46
22830;BME280;11581;51.250;6.778;2023-04-26T04:32:35;101472.69;;;5.49;65.50
22830;BME280;11581;51.250;6.778;2023-04-26T04:35:04;101473.50;;;5.50;65.69
22830;BME280;11581;51.250;6.778;2023-04-26T04:37:30;101484.97;;;5.50;65.75
22830;BME280;11581;51.250;6.778;2023-04-26T04:39:58;101469.28;;;5.47;66.43
22830;BME280;11581;51.250;6.778;2023-04-26T04:42:25;101444.94;;;5.42;66.66
22830;BME280;11581;51.250;6.778;2023-04-26T04:44:54;101452.16;;;5.53;67.15
22830;BME280;11581;51.250;6.778;2023-04-26T04:47:21;101433.72;;;5.51;67.78
22830;BME280;11581;51.250;6.778;2023-04-26T04:49:48;101331.56;;;5.10;68.61
22830;BME280;11581;51.250;6.778;2023-04-26T04:52:15;101436.44;;;5.90;69.01
22830;BME280;11581;51.250;6.778;2023-04-26T04:54:41;101473.66;;;6.28;69.29
22830;BME280;11581;51.250;6.778;2023-04-26T04:57:08;101483.03;;;6.58;69.63
22830;BME280;11581;51.250;6.778;2023-04-26T04:59:35;101474.34;;;6.81;69.82
22830;BME280;11581;51.250;6.778;2023-04-26T05:02:02;101480.69;;;7.17;69.54
22830;BME280;11581;51.250;6.778;2023-04-26T05:04:29;101489.72;;;7.50;69.76
22830;BME280;11581;51.250;6.778;2023-04-26T05:06:59;101428.53;;;7.52;69.38
22830;BME280;11581;51.250;6.778;2023-04-26T05:09:26;101441.59;;;8.02;68.51
22830;BME280;11581;51.250;6.778;2023-04-26T05:11:53;101490.41;;;8.70;68.33
22830;BME280;11581;51.250;6.778;2023-04-26T05:14:19;101494.22;;;9.11;67.93
22830;BME280;11581;51.250;6.778;2023-04-26T05:16:46;101402.19;;;8.98;67.29
22830;BME280;11581;51.250;6.778;2023-04-26T05:19:12;101499.56;;;9.98;66.66
22830;BME280;11581;51.250;6.778;2023-04-26T05:21:39;101489.03;;;10.39;65.97
22830;BME280;11581;51.250;6.778;2023-04-26T05:24:06;101496.97;;;10.91;65.35
22830;BME280;11581;51.250;6.778;2023-04-26T05:26:33;101505.06;;;11.41;64.34
22830;BME280;11581;51.250;6.778;2023-04-26T05:29:29;101489.78;;;11.92;61.45
22830;BME280;11581;51.250;6.778;2023-04-26T05:32:02;101498.22;;;12.54;63.62
22830;BME280;11581;51.250;6.778;2023-04-26T05:34:51;101481.28;;;13.01;63.19
22830;BME280;11581;51.250;6.778;2023-04-26T05:37:18;101498.28;;;13.73;62.46
22830;BME280;11581;51.250;6.778;2023-04-26T05:39:44;101500.31;;;14.33;61.52
22830;BME280;11581;51.250;6.778;2023-04-26T05:42:11;101503.66;;;14.96;60.74
22830;BME280;11581;51.250;6.778;2023-04-26T05:44:38;101457.69;;;15.32;59.74
22830;BME280;11581;51.250;6.778;2023-04-26T05:47:05;101504.75;;;16.28;58.30
22830;BME280;11581;51.250;6.778;2023-04-26T05:49:32;101499.41;;;16.92;56.29
22830;BME280;11581;51.250;6.778;2023-04-26T05:51:58;101509.41;;;17.46;54.33
22830;BME280;11581;51.250;6.778;2023-04-26T05:54:26;101510.22;;;17.93;53.08
22830;BME280;11581;51.250;6.778;2023-04-26T05:56:52;101498.81;;;18.36;52.33
22830;BME280;11581;51.250;6.778;2023-04-26T05:59:19;101458.72;;;18.48;50.75
22830;BME280;11581;51.250;6.778;2023-04-26T06:01:45;101512.56;;;19.23;50.60
22830;BME280;11581;51.250;6.778;2023-04-26T06:04:12;101511.41;;;19.69;49.42
22830;BME280;11581;51.250;6.778;2023-04-26T06:06:47;101490.59;;;20.06;49.18
22830;BME280;11581;51.250;6.778;2023-04-26T06:09:14;101522.53;;;20.67;47.65
22830;BME280;11581;51.250;6.778;2023-04-26T06:11:40;101387.97;;;20.32;45.68
22830;BME280;11581;51.250;6.778;2023-04-26T06:14:07;101517.91;;;21.37;43.82
22830;BME280;11581;51.250;6.778;2023-04-26T06:16:33;101518.66;;;21.58;43.11
22830;BME280;11581;51.250;6.778;2023-04-26T06:19:00;101520.28;;;21.80;42.78
22830;BME280;11581;51.250;6.778;2023-04-26T06:21:27;101500.41;;;21.86;41.98
22830;BME280;11581;51.250;6.778;2023-04-26T06:23:54;101518.50;;;22.20;41.92
22830;BME280;11581;51.250;6.778;2023-04-26T06:26:24;101528.63;;;22.46;42.45
22830;BME280;11581;51.250;6.778;2023-04-26T06:28:50;101494.38;;;22.51;41.44
22830;BME280;11581;51.250;6.778;2023-04-26T06:31:17;101532.47;;;23.03;40.37
22830;BME280;11581;51.250;6.778;2023-04-26T06:33:46;101520.09;;;23.33;39.67
22830;BME280;11581;51.250;6.778;2023-04-26T06:36:12;101512.75;;;23.53;39.01
22830;BME280;11581;51.250;6.778;2023-04-26T06:38:40;101487.16;;;23.61;38.54
22830;BME280;11581;51.250;6.778;2023-04-26T06:41:06;101538.97;;;24.12;38.25
22830;BME280;11581;51.250;6.778;2023-04-26T06:43:33;101517.81;;;24.38;39.03
22830;BME280;11581;51.250;6.778;2023-04-26T06:46:16;101526.78;;;24.83;39.19
22830;BME280;11581;51.250;6.778;2023-04-26T06:48:48;101518.97;;;25.11;37.31
22830;BME280;11581;51.250;6.778;2023-04-26T06:51:23;101523.47;;;25.48;36.33
22830;BME280;11581;51.250;6.778;2023-04-26T06:53:51;101498.22;;;25.52;35.21
22830;BME280;11581;51.250;6.778;2023-04-26T06:56:17;101454.91;;;25.38;34.98
22830;BME280;11581;51.250;6.778;2023-04-26T06:59:00;101519.53;;;25.80;32.34
22830;BME280;11581;51.250;6.778;2023-04-26T07:01:28;101518.63;;;25.86;35.00
22830;BME280;11581;51.250;6.778;2023-04-26T07:04:01;101526.50;;;25.94;34.93
22830;BME280;11581;51.250;6.778;2023-04-26T07:06:28;101501.91;;;25.94;34.95
22830;BME280;11581;51.250;6.778;2023-04-26T07:08:59;101529.53;;;26.22;31.25
22830;BME280;11581;51.250;6.778;2023-04-26T07:11:26;101514.78;;;26.23;33.82
22830;BME280;11581;51.250;6.778;2023-04-26T07:13:53;101527.34;;;26.42;33.13
22830;BME280;11581;51.250;6.778;2023-04-26T07:16:20;101495.06;;;26.21;32.58
22830;BME280;11581;51.250;6.778;2023-04-26T07:18:46;101530.72;;;26.26;31.48
22830;BME280;11581;51.250;6.778;2023-04-26T07:21:13;101515.75;;;25.99;31.27
22830;BME280;11581;51.250;6.778;2023-04-26T07:23:40;101507.84;;;25.73;31.09
22830;BME280;11581;51.250;6.778;2023-04-26T07:26:09;101524.84;;;25.57;30.67
22830;BME280;11581;51.250;6.778;2023-04-26T07:28:36;101453.00;;;24.96;32.20
22830;BME280;11581;51.250;6.778;2023-04-26T07:31:02;101416.63;;;24.53;31.76
22830;BME280;11581;51.250;6.778;2023-04-26T07:33:29;101520.91;;;24.86;31.26
22830;BME280;11581;51.250;6.778;2023-04-26T07:35:57;101533.22;;;24.64;31.29
22830;BME280;11581;51.250;6.778;2023-04-26T07:38:25;101475.50;;;23.98;31.26
22830;BME280;11581;51.250;6.778;2023-04-26T07:40:52;101529.38;;;23.89;31.18
22830;BME280;11581;51.250;6.778;2023-04-26T07:43:19;101533.25;;;23.49;30.61
22830;BME280;11581;51.250;6.778;2023-04-26T07:45:46;101530.16;;;23.07;31.56
22830;BME280;11581;51.250;6.778;2023-04-26T07:48:12;101532.25;;;22.72;32.49
22830;BME280;11581;51.250;6.778;2023-04-26T07:50:39;101532.81;;;22.48;33.53
22830;BME280;11581;51.250;6.778;2023-04-26T07:53:05;101536.75;;;22.39;34.73
22830;BME280;11581;51.250;6.778;2023-04-26T07:55:32;101533.63;;;22.42;34.44
22830;BME280;11581;51.250;6.778;2023-04-26T07:57:58;101526.50;;;22.48;34.28
22830;BME280;11581;51.250;6.778;2023-04-26T08:00:25;101485.13;;;22.39;34.34
22830;BME280;11581;51.250;6.778;2023-04-26T08:02:51;101525.34;;;22.76;34.08
22830;BME280;11581;51.250;6.778;2023-04-26T08:05:18;101528.91;;;22.83;34.10
22830;BME280;11581;51.250;6.778;2023-04-26T08:07:44;101522.63;;;22.89;34.11
22830;BME280;11581;51.250;6.778;2023-04-26T08:10:11;101517.59;;;22.93;33.72
22830;BME280;11581;51.250;6.778;2023-04-26T08:12:38;101511.53;;;22.91;33.47
22830;BME280;11581;51.250;6.778;2023-04-26T08:15:05;101469.72;;;22.66;33.27
22830;BME280;11581;51.250;6.778;2023-04-26T08:17:32;101530.16;;;23.00;34.12
22830;BME280;11581;51.250;6.778;2023-04-26T08:19:59;101525.97;;;23.04;34.01
22830;BME280;11581;51.250;6.778;2023-04-26T08:22:25;101518.66;;;23.11;33.90
22830;BME280;11581;51.250;6.778;2023-04-26T08:24:54;101486.44;;;22.95;32.35
22830;BME280;11581;51.250;6.778;2023-04-26T08:27:21;101524.50;;;23.21;32.78
22830;BME280;11581;51.250;6.778;2023-04-26T08:29:47;101526.59;;;23.13;32.30
22830;BME280;11581;51.250;6.778;2023-04-26T08:32:14;101452.53;;;22.52;31.67
22830;BME280;11581;51.250;6.778;2023-04-26T08:34:40;101523.22;;;22.65;31.56
22830;BME280;11581;51.250;6.778;2023-04-26T08:37:07;101532.34;;;22.32;31.44
22830;BME280;11581;51.250;6.778;2023-04-26T08:39:33;101527.63;;;21.93;31.83
22830;BME280;11581;51.250;6.778;2023-04-26T08:42:14;101520.22;;;21.40;30.92
22830;BME280;11581;51.250;6.778;2023-04-26T08:44:42;101522.50;;;21.09;32.45
22830;BME280;11581;51.250;6.778;2023-04-26T08:47:15;101478.94;;;20.41;31.33
22830;BME280;11581;51.250;6.778;2023-04-26T08:49:45;101536.06;;;20.46;32.75
22830;BME280;11581;51.250;6.778;2023-04-26T08:52:14;101536.81;;;20.19;33.19
22830;BME280;11581;51.250;6.778;2023-04-26T08:54:41;101534.63;;;19.93;34.01
22830;BME280;11581;51.250;6.778;2023-04-26T08:57:08;101541.06;;;19.77;34.60
22830;BME280;11581;51.250;6.778;2023-04-26T08:59:36;101529.69;;;19.67;34.76
22830;BME280;11581;51.250;6.778;2023-04-26T09:02:04;101537.81;;;19.67;35.66
22830;BME280;11581;51.250;6.778;2023-04-26T09:04:31;101514.66;;;19.65;36.66
22830;BME280;11581;51.250;6.778;2023-04-26T09:07:02;101501.13;;;19.79;35.43
22830;BME280;11581;51.250;6.778;2023-04-26T09:09:34;101538.81;;;20.31;34.44
22830;BME280;11581;51.250;6.778;2023-04-26T09:12:02;101535.38;;;20.58;35.88
22830;BME280;11581;51.250;6.778;2023-04-26T09:14:28;101540.97;;;20.78;35.08
22830;BME280;11581;51.250;6.778;2023-04-26T09:16:55;101483.22;;;20.56;34.54
22830;BME280;11581;51.250;6.778;2023-04-26T09:19:37;101539.03;;;20.93;31.86
22830;BME280;11581;51.250;6.778;2023-04-26T09:22:07;101539.41;;;20.90;33.55
22830;BME280;11581;51.250;6.778;2023-04-26T09:24:50;101475.44;;;20.47;31.56
22830;BME280;11581;51.250;6.778;2023-04-26T09:27:18;101521.69;;;20.66;32.92
22830;BME280;11581;51.250;6.778;2023-04-26T09:30:02;101464.81;;;20.10;31.89
22830;BME280;11581;51.250;6.778;2023-04-26T09:35:24;101527.59;;;20.13;31.20
22830;BME280;11581;51.250;6.778;2023-04-26T09:40:36;101518.19;;;19.80;32.30
22830;BME280;11581;51.250;6.778;2023-04-26T09:43:06;101533.22;;;19.82;34.77
22830;BME280;11581;51.250;6.778;2023-04-26T09:48:33;101514.38;;;20.46;34.10
22830;BME280;11581;51.250;6.778;2023-04-26T09:53:32;101509.75;;;21.37;34.27
22830;BME280;11581;51.250;6.778;2023-04-26T09:56:13;101487.81;;;21.66;31.79
22830;BME280;11581;51.250;6.778;2023-04-26T10:01:22;101498.84;;;22.05;32.91
22830;BME280;11581;51.250;6.778;2023-04-26T10:03:48;101481.44;;;21.93;32.15
22830;BME280;11581;51.250;6.778;2023-04-26T10:06:15;101501.09;;;21.95;32.07
22830;BME280;11581;51.250;6.778;2023-04-26T10:08:43;101474.25;;;21.72;31.99
22830;BME280;11581;51.250;6.778;2023-04-26T10:11:10;101505.44;;;21.83;31.96
22830;BME280;11581;51.250;6.778;2023-04-26T10:13:37;101501.47;;;21.79;31.87
22830;BME280;11581;51.250;6.778;2023-04-26T10:16:04;101447.81;;;21.47;31.63
22830;BME280;11581;51.250;6.778;2023-04-26T10:18:31;101491.94;;;21.62;31.29
22830;BME280;11581;51.250;6.778;2023-04-26T10:21:41;101504.22;;;21.51;29.17
22830;BME280;11581;51.250;6.778;2023-04-26T10:24:00;101457.16;;;21.04;31.97
22830;BME280;11581;51.250;6.778;2023-04-26T10:26:46;101496.66;;;21.13;30.85
22830;BME280;11581;51.250;6.778;2023-04-26T10:29:13;101444.97;;;20.66;32.73
22830;BME280;11581;51.250;6.778;2023-04-26T10:34:30;101506.16;;;20.54;32.48
22830;BME280;11581;51.250;6.778;2023-04-26T10:37:14;101501.38;;;20.35;31.41
22830;BME280;11581;51.250;6.778;2023-04-26T10:39:43;101499.38;;;20.22;32.69
22830;BME280;11581;51.250;6.778;2023-04-26T10:42:27;101379.88;;;19.39;31.12
22830;BME280;11581;51.250;6.778;2023-04-26T10:44:59;101487.19;;;19.97;31.93
22830;BME280;11581;51.250;6.778;2023-04-26T10:47:32;101493.56;;;20.11;35.31
22830;BME280;11581;51.250;6.778;2023-04-26T10:50:02;101492.84;;;20.38;33.33
22830;BME280;11581;51.250;6.778;2023-04-26T10:52:30;101500.09;;;20.79;35.15
22830;BME280;11581;51.250;6.778;2023-04-26T10:54:57;101483.03;;;21.34;34.55
22830;BME280;11581;51.250;6.778;2023-04-26T10:57:47;101489.63;;;22.06;33.05
22830;BME280;11581;51.250;6.778;2023-04-26T11:00:15;101481.00;;;22.76;34.49
22830;BME280;11581;51.250;6.778;2023-04-26T11:05:35;101458.38;;;24.22;29.38
22830;BME280;11581;51.250;6.778;2023-04-26T11:08:28;101467.53;;;24.90;28.08
22830;BME280;11581;51.250;6.778;2023-04-26T11:13:41;101478.66;;;25.55;26.69
22830;BME280;11581;51.250;6.778;2023-04-26T11:16:11;101466.44;;;25.58;28.12
22830;BME280;11581;51.250;6.778;2023-04-26T11:18:39;101463.22;;;25.43;27.35
22830;BME280;11581;51.250;6.778;2023-04-26T11:21:06;101471.44;;;25.18;26.63
22830;BME280;11581;51.250;6.778;2023-04-26T11:23:33;101453.06;;;24.65;26.86
22830;BME280;11581;51.250;6.778;2023-04-26T11:26:03;101443.59;;;24.12;25.96
22830;BME280;11581;51.250;6.778;2023-04-26T11:28:30;101472.41;;;23.81;26.93
22830;BME280;11581;51.250;6.778;2023-04-26T11:30:57;101406.94;;;22.93;27.54
22830;BME280;11581;51.250;6.778;2023-04-26T11:33:25;101448.56;;;22.74;27.80
22830;BME280;11581;51.250;6.778;2023-04-26T11:35:52;101425.72;;;22.17;28.09
22830;BME280;11581;51.250;6.778;2023-04-26T11:38:23;101475.81;;;22.01;26.66
22830;BME280;11581;51.250;6.778;2023-04-26T11:40:57;101469.41;;;21.61;27.50
22830;BME280;11581;51.250;6.778;2023-04-26T11:43:37;101460.00;;;21.23;27.88
22830;BME280;11581;51.250;6.778;2023-04-26T11:46:05;101462.75;;;20.96;28.97
22830;BME280;11581;51.250;6.778;2023-04-26T11:48:34;101469.78;;;20.69;29.59
22830;BME280;11581;51.250;6.778;2023-04-26T11:51:03;101459.19;;;20.47;30.06
22830;BME280;11581;51.250;6.778;2023-04-26T11:53:36;101455.97;;;20.37;29.61
22830;BME280;11581;51.250;6.778;2023-04-26T11:56:16;101448.84;;;20.36;31.96
22830;BME280;11581;51.250;6.778;2023-04-26T11:58:45;101464.72;;;20.60;32.56
22830;BME280;11581;51.250;6.778;2023-04-26T12:01:22;101456.16;;;20.84;31.18
22830;BME280;11581;51.250;6.778;2023-04-26T12:03:53;101466.69;;;21.21;30.61
22830;BME280;11581;51.250;6.778;2023-04-26T12:06:28;101463.78;;;21.63;30.14
22830;BME280;11581;51.250;6.778;2023-04-26T12:08:58;101450.56;;;22.07;32.43
22830;BME280;11581;51.250;6.778;2023-04-26T12:11:26;101455.06;;;22.54;31.17
22830;BME280;11581;51.250;6.778;2023-04-26T12:13:53;101442.31;;;22.67;29.96
22830;BME280;11581;51.250;6.778;2023-04-26T12:16:21;101449.19;;;22.89;28.18
22830;BME280;11581;51.250;6.778;2023-04-26T12:18:51;101404.03;;;22.62;27.15
22830;BME280;11581;51.250;6.778;2023-04-26T12:21:18;101459.22;;;22.89;28.70
22830;BME280;11581;51.250;6.778;2023-04-26T12:23:45;101443.97;;;22.75;28.92
22830;BME280;11581;51.250;6.778;2023-04-26T12:26:13;101455.06;;;22.80;29.08
22830;BME280;11581;51.250;6.778;2023-04-26T12:28:40;101474.09;;;22.73;29.13
22830;BME280;11581;51.250;6.778;2023-04-26T12:31:07;101377.88;;;22.35;29.15
22830;BME280;11581;51.250;6.778;2023-04-26T12:33:33;101417.63;;;22.62;29.23
22830;BME280;11581;51.250;6.778;2023-04-26T12:36:10;101409.91;;;22.72;26.99
22830;BME280;11581;51.250;6.778;2023-04-26T12:38:38;101445.81;;;23.13;29.38
22830;BME280;11581;51.250;6.778;2023-04-26T12:41:05;101442.88;;;23.28;29.91
22830;BME280;11581;51.250;6.778;2023-04-26T12:43:31;101432.19;;;23.26;29.28
22830;BME280;11581;51.250;6.778;2023-04-26T12:45:59;101458.25;;;23.60;28.43
22830;BME280;11581;51.250;6.778;2023-04-26T12:48:25;101439.41;;;23.58;27.60
22830;BME280;11581;51.250;6.778;2023-04-26T12:50:52;101457.81;;;23.63;27.33
22830;BME280;11581;51.250;6.778;2023-04-26T12:53:18;101450.13;;;23.53;27.14
22830;BME280;11581;51.250;6.778;2023-04-26T12:55:45;101441.59;;;23.43;27.82
22830;BME280;11581;51.250;6.778;2023-04-26T12:58:11;101440.75;;;23.36;27.63
22830;BME280;11581;51.250;6.778;2023-04-26T13:00:38;101410.25;;;23.08;28.05
22830;BME280;11581;51.250;6.778;2023-04-26T13:03:04;101442.81;;;23.41;27.97
22830;BME280;11581;51.250;6.778;2023-04-26T13:05:31;101440.75;;;23.36;27.13
22830;BME280;11581;51.250;6.778;2023-04-26T13:07:57;101450.44;;;23.26;26.71
22830;BME280;11581;51.250;6.778;2023-04-26T13:10:26;101407.78;;;22.81;26.80
22830;BME280;11581;51.250;6.778;2023-04-26T13:12:52;101431.66;;;22.72;27.26
22830;BME280;11581;51.250;6.778;2023-04-26T13:15:19;101455.91;;;22.54;27.33
22830;BME280;11581;51.250;6.778;2023-04-26T13:17:48;101457.09;;;22.32;27.56
22830;BME280;11581;51.250;6.778;2023-04-26T13:20:14;101462.47;;;22.06;27.33
22830;BME280;11581;51.250;6.778;2023-04-26T13:22:41;101342.25;;;21.11;27.89